Mac Dill Air Force Base
KMCF : now visible

Airfield :











YOU CAN JOIN US ON...

 
LOGIN :

Register | Disclaimer

   EN    FR    IT 

 









Legend :    VFR   Marginal VFR   IFR   Intensive IFR   Very Intensive IFR
Visi :
Ceiling :
>= 8 km
>= 3000ft
5 to 8 km
1000 to 3000 ft
1500m to 5 km
500 to 1000 ft
800 to 1500m
200 to 500 ft
< 800m
< 200 ft
Symbols :   Thunderstorms  Fog  Heavy snow  Heavy precipitations  Wind > 20 kt






- Airport Elevation : 14 ft


KMCF - Mac Dill Air Force Base

CURRENT METAR :
  • 080756Z AUTO 07008KT 10SM BKN100 14/12 A3014 RMK AO2 SLP209 T01410121 FZRANO $

EXPIRED METARs :
  • 080656Z AUTO 07006KT 10SM SCT090 14/12 A3014 RMK AO2 SLP209 T01440123 FZRANO $
  • 080556Z AUTO 08005KT 10SM SCT090 BKN110 15/12 A3015 RMK AO2 SLP213 T01470120 10147 20130 FZRANO $
  • 080456Z AUTO 07007KT 10SM CLR 14/12 A3016 RMK AO2 SLP216 T01420115 402360091 FZRANO $

TAF TAF KMCF
Valid from the 08 at 01:00 until the 09 at 07:00 UTC


080100Z 0801/0907 VRB06KT 9999 BKN050 QNH3011INS
BECMG 0818/0819 VRB06KT 9999 SCT050 QNH3007INS TX26/0820Z TN14/0812Z



MET'MAP, your aeronautical weather chart ! - Copyright ORBIFLY December 2007 - Disclaimer

ORBIFLY MET'MAP TEAM :

Programming & Development : Alexandra Zaïnal
Concept & original design : Baudouin d'Aumeries
Assistance for programming : Marc-Olivier Méhu
Technical & hardware support : Manuel Goepfert

Contact : metmap@orbifly.com




SOURCES & CREDITS :

   NOAA       Earth
Advisory